Time;durP1;ratioP1;P1;durP2;ratioP2;P2;SDS_P1;SDS_P2;PMS_P1;PMS_P2;Temp;Humidity;BMP_temperature;BMP_pressure;BME280_temperature;BME280_humidity;BME280_pressure;Samples;Min_cycle;Max_cycle;Signal;HPM_P1;HPM_P2
2023/11/02 00:02:23;;;;;;;0.10;0.10;;;;;;;12.46;71.54;99026.63;5051387;28;20480;-79
2023/11/02 00:04:50;;;;;;;0.10;0.10;;;;;;;12.52;70.94;99025.44;5036092;28;20152;-80
2023/11/02 00:07:18;;;;;;;0.10;0.10;;;;;;;12.52;71.06;99020.97;5037106;28;20041;-79
2023/11/02 00:09:44;;;;;;;0.10;0.10;;;;;;;12.56;71.33;99003.06;5034718;28;20029;-80
2023/11/02 00:12:18;;;;;;;0.47;0.47;;;;;;;12.58;71.27;98994.06;5037439;28;20022;-80
2023/11/02 00:14:51;;;;;;;0.10;0.10;;;;;;;12.68;70.54;98982.91;5037923;28;20496;-79
2023/11/02 00:20:19;;;;;;;0.20;0.20;;;;;;;12.70;71.21;98965.09;5090513;27;20389;-79
2023/11/02 00:22:48;;;;;;;0.10;0.10;;;;;;;12.71;70.91;98966.78;5073202;28;20099;-78
2023/11/02 00:28:09;;;;;;;0.10;0.10;;;;;;;12.75;71.05;98945.25;5099226;27;20403;-80
2023/11/02 00:30:37;;;;;;;0.10;0.10;;;;;;;12.82;70.85;98931.59;5079083;28;20024;-80
2023/11/02 00:33:04;;;;;;;0.20;0.20;;;;;;;12.76;70.50;98911.53;5080906;28;20487;-79
2023/11/02 00:35:31;;;;;;;4.47;1.23;;;;;;;12.74;70.79;98898.34;5076125;28;20041;-79
2023/11/02 00:37:57;;;;;;;0.10;0.10;;;;;;;12.82;70.67;98884.59;5080281;28;20025;-79
2023/11/02 00:40:23;;;;;;;0.10;0.10;;;;;;;12.89;70.31;98875.31;5075520;28;20036;-79
2023/11/02 00:42:50;;;;;;;0.20;0.20;;;;;;;12.81;70.67;98866.97;5077707;28;20074;-80
2023/11/02 00:45:16;;;;;;;2.17;0.65;;;;;;;12.89;70.37;98864.69;5078667;28;20518;-80
2023/11/02 00:47:42;;;;;;;0.03;0.03;;;;;;;12.86;70.17;98862.22;5085757;28;20027;-80
2023/11/02 00:50:42;;;;;;;0.17;0.17;;;;;;;13.02;69.93;98861.28;5080013;28;20503;-80
2023/11/02 00:53:08;;;;;;;0.10;0.10;;;;;;;12.95;69.81;98853.69;5084270;28;20043;-79
2023/11/02 00:55:35;;;;;;;0.10;0.10;;;;;;;12.95;70.16;98852.84;5084854;28;20097;-79
2023/11/02 00:58:11;;;;;;;0.10;0.10;;;;;;;13.01;70.17;98840.94;5079784;28;20031;-79
2023/11/02 01:03:34;;;;;;;0.10;0.10;;;;;;;13.01;70.21;98822.34;5154407;27;20389;-80
2023/11/02 01:06:01;;;;;;;0.10;0.10;;;;;;;13.02;69.97;98802.78;5119923;28;20141;-79
2023/11/02 01:08:33;;;;;;;0.10;0.10;;;;;;;13.13;69.50;98792.31;5113210;28;20399;-80
2023/11/02 01:10:59;;;;;;;0.33;0.33;;;;;;;13.15;69.66;98790.44;5114249;28;20473;-79
2023/11/02 01:13:27;;;;;;;0.10;0.10;;;;;;;13.15;69.74;98786.94;5114509;28;20322;-80
2023/11/02 01:16:10;;;;;;;0.15;0.15;;;;;;;13.12;69.42;98785.28;5112920;28;20103;-79
2023/11/02 01:18:43;;;;;;;0.17;0.17;;;;;;;13.14;69.72;98778.09;5114450;28;20030;-79
2023/11/02 01:21:09;;;;;;;0.10;0.10;;;;;;;13.19;69.27;98775.13;5115291;28;20059;-79
2023/11/02 01:23:36;;;;;;;1.85;1.75;;;;;;;13.19;69.07;98754.72;5114044;28;20042;-80
2023/11/02 01:26:04;;;;;;;0.10;0.10;;;;;;;13.16;69.32;98754.03;5112406;28;20035;-80
2023/11/02 01:31:34;;;;;;;0.10;0.10;;;;;;;13.24;68.91;98712.72;5114383;27;20419;-80
2023/11/02 01:34:02;;;;;;;0.10;0.10;;;;;;;13.24;68.68;98703.91;5098587;28;20032;-80
2023/11/02 01:36:32;;;;;;;0.10;0.10;;;;;;;13.27;68.97;98693.03;5097054;28;20503;-81
2023/11/02 01:39:08;;;;;;;0.10;0.10;;;;;;;13.22;68.68;98677.41;5101352;28;20020;-80
2023/11/02 01:41:55;;;;;;;0.47;0.45;;;;;;;13.39;68.48;98665.66;5101147;28;20024;-79
2023/11/02 01:47:33;;;;;;;0.10;0.10;;;;;;;13.48;68.48;98632.28;5115424;27;20394;-79
2023/11/02 02:00:59;;;;;;;0.10;0.10;;;;;;;13.27;68.20;98537.00;5075699;28;20457;-80
2023/11/02 02:03:32;;;;;;;0.10;0.10;;;;;;;13.22;68.32;98520.53;5060772;28;20040;-80
2023/11/02 02:06:04;;;;;;;;;;;;;;;13.41;67.69;98506.00;5056194;28;20044;-80
2023/11/02 02:08:48;;;;;;;0.10;0.10;;;;;;;13.37;68.34;98497.38;5056401;28;20343;-80
2023/11/02 02:11:39;;;;;;;0.10;0.10;;;;;;;13.16;68.19;98481.06;5050841;28;20132;-80
2023/11/02 02:14:25;;;;;;;0.20;0.20;;;;;;;13.25;67.91;98467.13;5058867;28;20057;-80
2023/11/02 02:17:08;;;;;;;0.10;0.10;;;;;;;13.32;68.00;98450.72;5055620;28;20079;-80
2023/11/02 02:20:01;;;;;;;0.10;0.10;;;;;;;13.44;67.39;98444.59;5051886;28;20084;-79
2023/11/02 02:22:30;;;;;;;;;;;;;;;13.50;67.21;98432.69;5058485;28;20605;-80
2023/11/02 02:25:34;;;;;;;0.20;0.20;;;;;;;13.46;67.69;98428.50;5055993;28;20421;-80
2023/11/02 02:31:17;;;;;;;0.10;0.10;;;;;;;13.47;67.08;98420.44;5082600;27;20131;-80
2023/11/02 02:39:05;;;;;;;0.10;0.10;;;;;;;13.47;67.16;98401.81;5084516;27;20139;-81
2023/11/02 02:41:38;;;;;;;0.13;0.13;;;;;;;13.48;67.22;98382.22;5068879;28;20033;-81
2023/11/02 02:44:06;;;;;;;0.10;0.10;;;;;;;13.49;66.85;98354.66;5075930;28;20083;-80
2023/11/02 02:46:34;;;;;;;0.10;0.10;;;;;;;13.50;66.87;98327.13;5074314;28;20028;-80
2023/11/02 02:49:00;;;;;;;0.10;0.10;;;;;;;13.51;66.84;98304.88;5073650;28;20391;-79
2023/11/02 02:51:29;;;;;;;0.10;0.10;;;;;;;13.57;66.42;98323.06;5076362;28;20029;-79
2023/11/02 02:54:01;;;;;;;0.10;0.10;;;;;;;13.68;66.11;98318.75;5079999;28;20063;-79
2023/11/02 02:56:28;;;;;;;;;;;;;;;13.73;65.81;98308.59;5076804;28;20020;-79
2023/11/02 02:59:01;;;;;;;0.10;0.10;;;;;;;13.73;65.96;98311.28;5077787;28;19916;-78
2023/11/02 03:01:36;;;;;;;0.20;0.20;;;;;;;13.75;65.87;98304.03;5076355;28;20021;-79
2023/11/02 03:04:06;;;;;;;0.10;0.10;;;;;;;13.74;66.35;98297.00;5071796;28;20112;-79
2023/11/02 03:06:32;;;;;;;0.10;0.10;;;;;;;13.67;66.12;98269.16;5076317;28;20063;-79
2023/11/02 03:09:01;;;;;;;0.10;0.10;;;;;;;13.67;66.12;98272.69;5076291;28;20028;-80
2023/11/02 03:11:29;;;;;;;0.20;0.20;;;;;;;13.68;65.70;98262.88;5074597;28;20484;-79
2023/11/02 03:13:58;;;;;;;2.63;2.28;;;;;;;13.76;65.65;98247.19;5073358;28;20045;-79
2023/11/02 03:16:34;;;;;;;0.20;0.20;;;;;;;13.80;65.92;98266.44;5073440;28;20056;-79
2023/11/02 03:19:03;;;;;;;0.10;0.10;;;;;;;13.75;65.90;98218.88;5073401;28;20033;-80
2023/11/02 03:21:30;;;;;;;0.10;0.10;;;;;;;13.69;66.02;98198.88;5072056;28;20097;-79
2023/11/02 03:26:59;;;;;;;0.10;0.10;;;;;;;13.74;65.89;98174.59;5114628;27;20396;-79
2023/11/02 03:32:28;;;;;;;0.20;0.20;;;;;;;13.80;65.86;98205.22;5093694;28;20419;-79
2023/11/02 03:35:05;;;;;;;0.20;0.20;;;;;;;13.78;66.02;98181.38;5085562;28;20032;-80
2023/11/02 03:53:59;;;;;;;0.10;0.10;;;;;;;13.78;64.88;98058.13;5071788;28;20141;-79
2023/11/02 03:59:31;;;;;;;0.20;0.20;;;;;;;13.82;64.57;98022.31;5073213;28;20394;-79
2023/11/02 04:02:03;;;;;;;0.10;0.10;;;;;;;13.85;64.45;98044.22;5063493;28;20395;-79
2023/11/02 04:04:41;;;;;;;0.13;0.13;;;;;;;13.89;64.62;98018.22;5054469;28;20040;-80
2023/11/02 04:10:06;;;;;;;0.10;0.10;;;;;;;13.90;64.06;97956.88;5095892;27;20401;-79
2023/11/02 04:12:53;;;;;;;0.52;0.52;;;;;;;13.87;63.97;97962.44;5090284;28;20025;-79
2023/11/02 04:15:19;;;;;;;0.10;0.10;;;;;;;13.86;64.03;97938.63;5096669;28;20040;-79
2023/11/02 04:17:45;;;;;;;0.10;0.10;;;;;;;13.81;64.04;97935.50;5088334;28;20043;-78
2023/11/02 04:20:12;;;;;;;0.10;0.10;;;;;;;13.84;64.13;97919.25;5092667;28;20060;-78
2023/11/02 04:22:39;;;;;;;0.10;0.10;;;;;;;13.87;64.01;97916.38;5087003;28;20024;-79
2023/11/02 04:25:06;;;;;;;0.10;0.10;;;;;;;13.81;63.82;97909.72;5095383;28;20518;-79
2023/11/02 04:27:32;;;;;;;0.10;0.10;;;;;;;13.93;63.73;97891.88;5085475;28;20024;-79
2023/11/02 04:29:58;;;;;;;0.10;0.10;;;;;;;13.93;63.68;97880.41;5087713;28;20032;-79
2023/11/02 04:32:24;;;;;;;0.20;0.20;;;;;;;13.89;63.54;97882.47;5090349;28;20104;-80
2023/11/02 04:34:50;;;;;;;0.10;0.10;;;;;;;13.85;63.42;97873.06;5083332;28;20108;-79
2023/11/02 04:37:17;;;;;;;0.10;0.10;;;;;;;13.85;63.78;97857.91;5083595;28;20090;-79
2023/11/02 04:39:44;;;;;;;0.10;0.10;;;;;;;13.83;63.11;97857.22;5088951;28;20117;-79
2023/11/02 04:42:11;;;;;;;0.10;0.10;;;;;;;13.94;63.08;97850.16;5092291;28;20027;-79
2023/11/02 04:44:38;;;;;;;0.20;0.20;;;;;;;13.93;63.01;97851.13;5083886;28;20040;-80
2023/11/02 04:47:04;;;;;;;0.10;0.10;;;;;;;13.94;62.32;97828.88;5086146;28;20025;-79
2023/11/02 04:49:34;;;;;;;0.10;0.10;;;;;;;13.94;61.87;97824.38;5084862;28;20032;-78
2023/11/02 04:52:02;;;;;;;0.10;0.10;;;;;;;13.97;61.90;97829.47;5081698;28;20064;-78
2023/11/02 04:54:30;;;;;;;0.10;0.10;;;;;;;13.95;61.26;97811.94;5083198;28;20081;-78
2023/11/02 04:56:56;;;;;;;0.10;0.10;;;;;;;14.04;61.64;97811.16;5091358;28;20036;-78
2023/11/02 04:59:23;;;;;;;0.13;0.13;;;;;;;14.03;61.64;97810.34;5086500;28;20028;-78
2023/11/02 05:01:49;;;;;;;0.10;0.10;;;;;;;14.00;61.15;97797.25;5083505;28;20394;-78
2023/11/02 05:04:16;;;;;;;0.10;0.10;;;;;;;14.02;60.93;97794.50;5089202;28;20079;-76
2023/11/02 05:06:43;;;;;;;0.10;0.10;;;;;;;14.01;60.72;97771.50;5090393;28;20080;-77
2023/11/02 05:09:09;;;;;;;0.10;0.10;;;;;;;14.02;60.18;97773.19;5087949;28;20479;-78
2023/11/02 05:11:35;;;;;;;0.10;0.10;;;;;;;14.06;60.15;97753.31;5085851;28;20060;-79
2023/11/02 05:14:01;;;;;;;0.10;0.10;;;;;;;14.03;60.81;97742.91;5086884;28;20028;-78
2023/11/02 05:16:28;;;;;;;0.20;0.20;;;;;;;14.09;60.85;97739.75;5092710;28;20043;-77
2023/11/02 05:18:54;;;;;;;0.10;0.10;;;;;;;13.94;61.32;97733.88;5096900;28;20039;-77
2023/11/02 05:21:20;;;;;;;0.25;0.25;;;;;;;13.94;61.83;97717.09;5075285;28;20380;-78
2023/11/02 05:23:46;;;;;;;0.10;0.10;;;;;;;13.69;61.58;97696.03;5069492;28;20064;-78
2023/11/02 05:26:13;;;;;;;0.10;0.10;;;;;;;13.82;61.95;97708.31;5075143;28;20048;-78
2023/11/02 05:28:39;;;;;;;0.20;0.20;;;;;;;13.84;61.81;97701.03;5074950;28;20028;-78
2023/11/02 05:31:06;;;;;;;0.10;0.10;;;;;;;13.79;61.80;97696.09;5070819;28;20087;-78
2023/11/02 05:33:32;;;;;;;0.20;0.20;;;;;;;13.73;61.81;97697.47;5072841;28;20042;-79
2023/11/02 05:35:58;;;;;;;0.10;0.10;;;;;;;13.74;62.26;97690.31;5071763;28;20669;-79
2023/11/02 05:38:24;;;;;;;0.15;0.15;;;;;;;13.75;62.01;97676.88;5073733;28;20036;-79
2023/11/02 05:40:50;;;;;;;0.10;0.10;;;;;;;13.69;62.32;97671.25;5074678;28;20024;-78
2023/11/02 05:43:16;;;;;;;0.10;0.10;;;;;;;13.73;62.56;97657.56;5077043;28;20037;-77
2023/11/02 05:45:42;;;;;;;0.10;0.10;;;;;;;13.73;63.01;97668.22;5066103;28;20055;-77
2023/11/02 05:48:09;;;;;;;0.10;0.10;;;;;;;13.72;62.99;97649.69;5073925;28;20080;-79
2023/11/02 05:50:36;;;;;;;0.10;0.10;;;;;;;13.71;63.09;97645.38;5081821;28;20033;-77
2023/11/02 05:53:02;;;;;;;0.10;0.10;;;;;;;13.65;63.46;97627.25;5081130;28;20032;-78
2023/11/02 05:55:29;;;;;;;0.10;0.10;;;;;;;13.54;63.98;97628.16;5066544;28;20036;-77
2023/11/02 05:57:55;;;;;;;0.10;0.10;;;;;;;13.46;63.74;97604.88;5065548;28;20025;-78
2023/11/02 06:00:22;;;;;;;0.20;0.20;;;;;;;13.56;63.50;97608.44;5071346;28;20454;-78
2023/11/02 06:02:48;;;;;;;0.10;0.10;;;;;;;13.42;64.19;97603.41;5063309;28;20043;-79
2023/11/02 06:05:14;;;;;;;0.10;0.10;;;;;;;13.50;63.73;97598.31;5065298;28;20036;-77
2023/11/02 06:07:40;;;;;;;0.10;0.10;;;;;;;13.55;63.65;97595.28;5064093;28;20102;-78
2023/11/02 06:10:06;;;;;;;0.10;0.10;;;;;;;13.50;64.02;97581.53;5068493;28;20039;-79
2023/11/02 06:12:32;;;;;;;0.10;0.10;;;;;;;13.43;64.14;97571.41;5075133;28;20033;-79
2023/11/02 06:14:58;;;;;;;0.10;0.10;;;;;;;13.38;63.93;97546.16;5064214;28;20060;-79
2023/11/02 06:17:24;;;;;;;0.10;0.10;;;;;;;13.45;64.09;97547.31;5070772;28;20032;-78
2023/11/02 06:19:51;;;;;;;0.10;0.10;;;;;;;13.32;64.83;97543.97;5064281;28;20075;-79
2023/11/02 06:22:17;;;;;;;0.10;0.10;;;;;;;13.37;64.69;97523.16;5073596;28;20547;-75
2023/11/02 06:24:45;;;;;;;0.10;0.10;;;;;;;13.33;64.77;97533.22;5066563;28;20100;-77
2023/11/02 06:27:12;;;;;;;0.10;0.10;;;;;;;13.32;65.36;97536.88;5077058;28;20403;-78
2023/11/02 06:29:38;;;;;;;0.10;0.10;;;;;;;13.36;65.80;97521.50;5063995;28;20028;-77
2023/11/02 06:32:05;;;;;;;0.10;0.10;;;;;;;13.37;65.74;97517.84;5057038;28;20091;-78
2023/11/02 06:34:36;;;;;;;0.20;0.20;;;;;;;13.45;66.01;97514.59;5068350;28;20036;-78
2023/11/02 06:37:02;;;;;;;0.10;0.10;;;;;;;13.43;66.01;97501.41;5064517;28;20557;-78
2023/11/02 06:39:28;;;;;;;0.20;0.20;;;;;;;13.46;66.06;97479.00;5071959;28;20029;-78
2023/11/02 06:41:54;;;;;;;0.17;0.17;;;;;;;13.39;66.48;97462.75;5063857;28;20399;-78
2023/11/02 06:44:20;;;;;;;0.10;0.10;;;;;;;13.32;66.59;97467.72;5068708;28;20021;-77
2023/11/02 06:46:47;;;;;;;0.10;0.10;;;;;;;13.39;66.53;97447.63;5067595;28;20025;-78
2023/11/02 06:49:13;;;;;;;0.10;0.10;;;;;;;13.28;67.05;97455.66;5067577;28;20123;-79
2023/11/02 06:51:39;;;;;;;0.20;0.20;;;;;;;13.22;67.34;97462.34;5067737;28;20103;-78
2023/11/02 06:54:05;;;;;;;0.10;0.10;;;;;;;13.34;67.31;97475.56;5068247;28;20564;-77
2023/11/02 06:56:32;;;;;;;0.10;0.10;;;;;;;13.30;67.48;97460.88;5074952;28;20059;-77
2023/11/02 06:58:58;;;;;;;0.10;0.10;;;;;;;13.25;67.82;97440.81;5066931;28;20066;-77
2023/11/02 07:01:24;;;;;;;0.10;0.10;;;;;;;13.34;67.44;97443.66;5071142;28;20050;-76
2023/11/02 07:03:50;;;;;;;2.05;1.85;;;;;;;13.33;67.41;97447.28;5066108;28;20036;-77
2023/11/02 07:06:16;;;;;;;0.40;0.40;;;;;;;13.32;67.71;97443.81;5068041;28;20096;-78
2023/11/02 07:08:42;;;;;;;0.10;0.10;;;;;;;13.40;67.49;97436.03;5063597;28;20127;-79
2023/11/02 07:11:09;;;;;;;0.10;0.10;;;;;;;13.46;67.50;97416.06;5065654;28;20025;-78
2023/11/02 07:13:35;;;;;;;0.10;0.10;;;;;;;13.49;67.42;97421.09;5062004;28;20025;-79
2023/11/02 07:16:01;;;;;;;0.10;0.10;;;;;;;13.58;67.53;97420.31;5069476;28;20100;-78
2023/11/02 07:18:27;;;;;;;0.10;0.10;;;;;;;13.66;67.14;97416.97;5065774;28;20032;-79
2023/11/02 07:20:54;;;;;;;0.20;0.20;;;;;;;13.60;67.77;97406.84;5061663;28;20120;-79
2023/11/02 07:23:20;;;;;;;0.10;0.10;;;;;;;13.67;67.34;97418.66;5072819;28;20021;-78
2023/11/02 07:25:46;;;;;;;0.15;0.15;;;;;;;13.69;67.92;97405.22;5068097;28;20036;-78
2023/11/02 07:28:12;;;;;;;0.10;0.10;;;;;;;13.82;67.76;97400.50;5072017;28;20024;-78
2023/11/02 07:30:38;;;;;;;0.10;0.10;;;;;;;13.88;67.85;97399.09;5065953;28;20060;-77
2023/11/02 07:33:04;;;;;;;0.10;0.10;;;;;;;13.85;67.94;97370.94;5061688;28;20041;-78
2023/11/02 07:35:31;;;;;;;0.17;0.17;;;;;;;13.88;68.09;97372.47;5065649;28;20052;-79
2023/11/02 07:37:57;;;;;;;0.10;0.10;;;;;;;13.93;68.03;97364.09;5068442;28;20028;-79
2023/11/02 07:40:24;;;;;;;0.55;0.43;;;;;;;13.98;68.19;97368.03;5063411;28;20072;-78
2023/11/02 07:42:50;;;;;;;0.10;0.10;;;;;;;14.04;68.33;97350.66;5069621;28;20024;-79
2023/11/02 07:45:16;;;;;;;0.10;0.10;;;;;;;13.99;69.08;97334.28;5072937;28;20031;-79
2023/11/02 07:47:42;;;;;;;0.10;0.10;;;;;;;14.14;68.63;97337.34;5068663;28;20676;-79
2023/11/02 07:50:08;;;;;;;0.10;0.10;;;;;;;14.11;69.00;97332.31;5074487;28;20040;-79
2023/11/02 07:52:36;;;;;;;0.10;0.10;;;;;;;14.05;69.40;97323.91;5063497;28;20072;-78
2023/11/02 07:55:03;;;;;;;0.10;0.10;;;;;;;14.03;69.56;97307.25;5074772;28;20036;-79
2023/11/02 07:57:29;;;;;;;0.10;0.10;;;;;;;14.10;69.75;97307.50;5079103;28;20052;-78
2023/11/02 07:59:55;;;;;;;0.10;0.10;;;;;;;14.09;69.74;97311.16;5066883;28;20029;-79
2023/11/02 08:02:21;;;;;;;0.15;0.15;;;;;;;14.16;69.63;97304.28;5069381;28;20043;-79
2023/11/02 08:04:48;;;;;;;0.10;0.10;;;;;;;14.11;69.72;97295.06;5060418;28;20099;-80
2023/11/02 08:07:14;;;;;;;1.55;1.27;;;;;;;14.24;69.61;97301.78;5073213;28;20116;-79
2023/11/02 08:09:40;;;;;;;0.10;0.10;;;;;;;14.29;69.27;97300.50;5066281;28;20158;-79
2023/11/02 08:12:08;;;;;;;0.10;0.10;;;;;;;14.24;69.02;97293.78;5061124;28;20408;-79
2023/11/02 08:14:35;;;;;;;0.10;0.10;;;;;;;14.32;68.33;97295.75;5066210;28;20021;-79
2023/11/02 08:17:03;;;;;;;0.10;0.10;;;;;;;14.43;68.14;97288.56;5063081;28;20032;-81
2023/11/02 08:19:30;;;;;;;5.82;1.85;;;;;;;14.46;67.50;97282.97;5069353;28;20033;-78
2023/11/02 08:21:56;;;;;;;0.10;0.10;;;;;;;14.42;66.73;97286.88;5074849;28;20079;-79
2023/11/02 08:24:22;;;;;;;0.30;0.30;;;;;;;14.61;66.47;97262.88;5064116;28;20091;-79
2023/11/02 08:26:48;;;;;;;0.10;0.10;;;;;;;14.57;65.62;97256.16;5071215;28;20036;-80
2023/11/02 08:29:15;;;;;;;0.10;0.10;;;;;;;14.72;65.16;97259.25;5064832;28;20518;-80
2023/11/02 08:31:41;;;;;;;0.10;0.10;;;;;;;14.83;64.46;97245.72;5071664;28;20055;-79
2023/11/02 08:34:10;;;;;;;0.10;0.10;;;;;;;14.81;63.34;97247.69;5068770;28;20171;-78
2023/11/02 08:36:36;;;;;;;0.10;0.10;;;;;;;14.96;62.97;97237.38;5070090;28;20104;-79
2023/11/02 08:39:02;;;;;;;0.10;0.10;;;;;;;14.96;61.68;97233.91;5068622;28;20044;-79
2023/11/02 08:41:31;;;;;;;1.30;1.20;;;;;;;15.09;61.49;97229.06;5062903;28;20036;-78
2023/11/02 08:43:59;;;;;;;0.10;0.10;;;;;;;15.16;61.11;97223.97;5076013;28;20080;-80
2023/11/02 08:46:25;;;;;;;0.85;0.38;;;;;;;15.27;60.87;97225.59;5073774;28;20032;-80
2023/11/02 08:48:53;;;;;;;0.10;0.10;;;;;;;15.39;60.05;97223.56;5072787;28;20029;-76
2023/11/02 08:51:20;;;;;;;0.10;0.10;;;;;;;15.27;58.78;97215.75;5074930;28;20017;-81
2023/11/02 08:53:47;;;;;;;0.05;0.05;;;;;;;15.45;58.67;97212.28;5073356;28;20036;-78
2023/11/02 08:56:14;;;;;;;0.10;0.10;;;;;;;15.57;58.81;97196.91;5071651;28;20512;-79
2023/11/02 08:58:42;;;;;;;0.22;0.22;;;;;;;15.59;57.88;97193.09;5086022;28;20047;-78
2023/11/02 09:01:10;;;;;;;0.10;0.10;;;;;;;15.51;57.65;97185.84;5081131;28;20029;-78
2023/11/02 09:03:38;;;;;;;0.10;0.10;;;;;;;15.60;57.46;97169.91;5080237;28;20063;-78
2023/11/02 09:06:06;;;;;;;0.15;0.15;;;;;;;15.66;57.62;97169.28;5072025;28;20060;-78
2023/11/02 09:08:34;;;;;;;1.25;1.15;;;;;;;15.59;57.16;97182.41;5078549;28;20058;-79
2023/11/02 09:11:00;;;;;;;0.13;0.13;;;;;;;15.52;56.99;97174.16;5076265;28;20035;-79
2023/11/02 09:13:26;;;;;;;0.10;0.10;;;;;;;15.56;57.92;97174.72;5074590;28;20512;-80
2023/11/02 09:15:53;;;;;;;0.10;0.10;;;;;;;15.47;58.00;97179.13;5062952;28;20056;-79
2023/11/02 09:18:20;;;;;;;0.10;0.10;;;;;;;15.42;58.83;97176.09;5078666;28;20112;-80
2023/11/02 09:20:46;;;;;;;0.10;0.10;;;;;;;15.16;59.31;97162.66;5068901;28;20036;-80
2023/11/02 09:23:12;;;;;;;0.10;0.10;;;;;;;15.16;59.07;97152.81;5078880;28;20032;-80
2023/11/02 09:25:38;;;;;;;0.10;0.10;;;;;;;15.01;58.80;97163.16;5069499;28;20093;-78
2023/11/02 09:28:05;;;;;;;0.10;0.10;;;;;;;14.92;59.11;97144.56;5071054;28;20029;-79
2023/11/02 09:30:32;;;;;;;0.10;0.10;;;;;;;14.90;59.83;97134.03;5072730;28;20033;-79
2023/11/02 09:32:58;;;;;;;0.20;0.20;;;;;;;14.92;60.74;97141.91;5070021;28;20029;-79
2023/11/02 09:35:24;;;;;;;0.10;0.10;;;;;;;14.84;61.57;97146.16;5069765;28;20135;-79
2023/11/02 09:37:50;;;;;;;0.10;0.10;;;;;;;14.90;61.46;97123.38;5067839;28;20108;-78
2023/11/02 09:40:16;;;;;;;0.10;0.10;;;;;;;14.80;61.09;97128.75;5071496;28;20403;-79
2023/11/02 09:42:45;;;;;;;0.10;0.10;;;;;;;14.85;60.50;97121.19;5070140;28;20033;-78
2023/11/02 09:45:12;;;;;;;0.10;0.10;;;;;;;14.98;60.05;97109.31;5079233;28;20025;-78
2023/11/02 09:47:38;;;;;;;0.10;0.10;;;;;;;15.06;58.73;97101.38;5073406;28;20069;-79
2023/11/02 09:50:07;;;;;;;0.10;0.10;;;;;;;15.22;58.40;97131.88;5080207;28;20176;-78
2023/11/02 09:52:34;;;;;;;0.10;0.10;;;;;;;15.26;57.71;97117.25;5078207;28;20111;-79
2023/11/02 09:55:01;;;;;;;0.10;0.10;;;;;;;15.35;56.52;97124.31;5076508;28;20043;-79
2023/11/02 09:57:28;;;;;;;0.10;0.10;;;;;;;15.50;56.08;97119.28;5070358;28;20033;-78
2023/11/02 09:59:54;;;;;;;0.60;0.60;;;;;;;15.55;55.65;97130.34;5080367;28;20024;-78
2023/11/02 10:02:22;;;;;;;0.10;0.10;;;;;;;15.60;55.12;97117.41;5077186;28;20529;-79
2023/11/02 10:04:48;;;;;;;0.35;0.35;;;;;;;15.61;56.58;97132.38;5071735;28;20033;-79
2023/11/02 10:07:15;;;;;;;0.10;0.10;;;;;;;15.65;56.56;97135.59;5070441;28;20509;-78
2023/11/02 10:09:42;;;;;;;0.10;0.10;;;;;;;15.53;56.61;97119.81;5070184;28;20116;-78
2023/11/02 10:12:09;;;;;;;0.10;0.10;;;;;;;15.55;56.48;97127.66;5077311;28;20048;-78
2023/11/02 10:14:36;;;;;;;0.10;0.10;;;;;;;15.42;56.67;97112.06;5069708;28;20032;-79
2023/11/02 10:17:03;;;;;;;0.10;0.10;;;;;;;15.34;55.37;97099.50;5067385;28;20039;-78
2023/11/02 10:19:29;;;;;;;0.10;0.10;;;;;;;15.45;56.19;97086.91;5069713;28;20052;-78
2023/11/02 10:21:56;;;;;;;0.20;0.20;;;;;;;15.47;55.67;97119.63;5078441;28;20025;-79
2023/11/02 10:24:37;;;;;;;0.20;0.20;;;;;;;15.58;54.72;97095.34;5072884;28;20039;-78
2023/11/02 10:27:04;;;;;;;0.10;0.10;;;;;;;15.49;55.44;97102.47;5070060;28;20112;-79
2023/11/02 10:29:31;;;;;;;0.10;0.10;;;;;;;15.49;55.79;97107.78;5070747;28;20040;-78
2023/11/02 10:31:58;;;;;;;0.10;0.10;;;;;;;15.49;55.74;97102.47;5069099;28;20037;-78
2023/11/02 10:34:27;;;;;;;0.10;0.10;;;;;;;15.40;55.21;97103.38;5072358;28;20036;-79
2023/11/02 10:36:57;;;;;;;0.10;0.10;;;;;;;15.62;55.81;97094.03;5063948;28;20109;-79
2023/11/02 10:39:24;;;;;;;0.68;0.68;;;;;;;15.50;56.71;97106.81;5075099;28;20035;-79
2023/11/02 10:41:58;;;;;;;0.30;0.30;;;;;;;15.49;57.18;97090.97;5068895;28;20040;-80
2023/11/02 10:44:29;;;;;;;0.10;0.10;;;;;;;15.44;57.41;97110.09;5078159;28;20075;-80
2023/11/02 10:47:01;;;;;;;1.00;0.65;;;;;;;15.42;58.45;97089.91;5068411;28;20492;-80
2023/11/02 10:49:29;;;;;;;0.17;0.17;;;;;;;15.17;57.24;97101.16;5070185;28;20028;-81
2023/11/02 10:51:58;;;;;;;0.10;0.10;;;;;;;15.08;57.70;97107.41;5065121;28;20484;-80
2023/11/02 10:57:13;;;;;;;0.10;0.10;;;;;;;15.18;59.46;97126.03;5101984;27;20391;-81
2023/11/02 10:59:40;;;;;;;0.10;0.10;;;;;;;14.96;59.00;97116.63;5076872;28;20054;-81
2023/11/02 11:02:10;;;;;;;0.10;0.10;;;;;;;14.80;59.99;97127.94;5076195;28;20036;-84
2023/11/02 11:04:41;;;;;;;0.10;0.10;;;;;;;14.85;61.97;97118.50;5064758;28;20096;-80
2023/11/02 11:07:09;;;;;;;0.17;0.17;;;;;;;14.68;62.40;97129.97;5071679;28;20090;-79
2023/11/02 11:09:38;;;;;;;0.10;0.10;;;;;;;14.51;63.32;97128.88;5070997;28;20112;-80
2023/11/02 11:12:05;;;;;;;1.35;0.43;;;;;;;14.44;64.59;97120.63;5074119;28;20028;-79
2023/11/02 11:14:32;;;;;;;0.55;0.55;;;;;;;14.17;65.22;97137.44;5073413;28;20036;-80
2023/11/02 11:17:00;;;;;;;0.10;0.10;;;;;;;14.05;65.28;97153.53;5072851;28;20039;-80
2023/11/02 11:19:31;;;;;;;0.10;0.10;;;;;;;14.11;65.76;97143.34;5071019;28;20036;-80
2023/11/02 11:22:00;;;;;;;0.10;0.10;;;;;;;13.92;66.45;97131.75;5070444;28;20574;-79
2023/11/02 11:24:31;;;;;;;0.30;0.30;;;;;;;13.92;66.78;97134.41;5071830;28;20048;-80
2023/11/02 11:26:58;;;;;;;0.43;0.43;;;;;;;13.93;66.58;97136.06;5071800;28;20020;-80
2023/11/02 11:32:29;;;;;;;0.10;0.10;;;;;;;13.99;66.07;97108.88;5111864;27;20400;-80
2023/11/02 11:43:06;;;;;;;0.10;0.10;;;;;;;13.90;64.79;97091.13;5111293;27;20389;-80
2023/11/02 11:48:34;;;;;;;0.10;0.10;;;;;;;14.05;64.42;97115.44;5114072;27;20392;-80
2023/11/02 11:51:00;;;;;;;0.10;0.10;;;;;;;13.95;64.83;97112.00;5098630;28;20106;-81
2023/11/02 11:53:26;;;;;;;0.40;0.40;;;;;;;13.79;64.79;97102.75;5108528;28;20032;-79
2023/11/02 11:56:29;;;;;;;0.10;0.10;;;;;;;13.83;64.99;97098.00;5105703;28;20392;-81
2023/11/02 11:59:42;;;;;;;0.10;0.10;;;;;;;13.85;65.26;97112.84;5082638;28;20044;-79
2023/11/02 12:02:35;;;;;;;1.00;0.75;;;;;;;13.85;65.53;97101.38;5023766;28;20041;-79
2023/11/02 12:05:04;;;;;;;;;;;;;;;13.88;65.63;97106.38;5031640;28;20046;-81
2023/11/02 12:07:31;;;;;;;0.10;0.10;;;;;;;13.73;66.14;97106.84;5027970;28;20404;-81
2023/11/02 12:10:12;;;;;;;0.20;0.20;;;;;;;13.80;66.10;97085.81;5029999;28;20069;-81
2023/11/02 12:12:43;;;;;;;0.10;0.10;;;;;;;13.74;66.13;97108.53;5030705;28;20128;-80
2023/11/02 12:15:24;;;;;;;0.10;0.10;;;;;;;13.73;66.56;97082.91;5030324;28;20025;-81
2023/11/02 12:17:51;;;;;;;0.10;0.10;;;;;;;13.74;66.48;97073.09;5027038;28;20043;-80
2023/11/02 12:20:34;;;;;;;5.18;2.60;;;;;;;13.66;66.15;97059.69;5025021;28;20042;-80
2023/11/02 12:23:00;;;;;;;0.15;0.15;;;;;;;13.70;66.30;97051.25;5027891;28;20526;-81
2023/11/02 12:25:26;;;;;;;0.10;0.10;;;;;;;13.66;65.46;97049.88;5027999;28;20049;-80
2023/11/02 12:27:56;;;;;;;0.20;0.20;;;;;;;13.70;65.28;97048.59;5028067;28;20080;-80
2023/11/02 12:30:23;;;;;;;0.20;0.20;;;;;;;13.75;64.68;97030.38;5021836;28;20580;-80
2023/11/02 12:32:49;;;;;;;0.15;0.15;;;;;;;13.84;64.09;97025.19;5027416;28;20045;-80
2023/11/02 12:35:18;;;;;;;0.10;0.10;;;;;;;13.81;63.78;97022.81;5027421;28;20037;-80
2023/11/02 12:37:45;;;;;;;2.30;1.85;;;;;;;13.93;63.58;97034.13;5034858;28;20518;-80
2023/11/02 12:40:12;;;;;;;0.10;0.10;;;;;;;13.84;62.78;97030.50;5085482;28;20036;-80
2023/11/02 12:42:39;;;;;;;0.10;0.10;;;;;;;13.90;62.85;97024.59;5093404;28;20494;-80
2023/11/02 12:45:05;;;;;;;0.10;0.10;;;;;;;13.81;62.30;97017.50;5084849;28;20469;-81
2023/11/02 12:47:40;;;;;;;0.13;0.13;;;;;;;14.01;62.56;96995.13;5098353;28;20063;-80
2023/11/02 12:50:26;;;;;;;1.08;1.08;;;;;;;13.82;63.22;97008.50;5092741;28;20035;-80
2023/11/02 12:52:53;;;;;;;0.10;0.10;;;;;;;13.84;63.25;97012.69;5086870;28;20075;-79
2023/11/02 12:55:22;;;;;;;0.10;0.10;;;;;;;13.62;63.46;96997.97;5106863;28;20020;-79
2023/11/02 12:57:57;;;;;;;0.10;0.10;;;;;;;13.80;64.56;97014.00;5092352;28;20571;-80
2023/11/02 13:00:23;;;;;;;0.20;0.20;;;;;;;13.69;64.50;97006.19;5082212;28;20048;-78
2023/11/02 13:02:50;;;;;;;0.15;0.15;;;;;;;13.64;64.92;97013.75;5081809;28;20029;-79